createdAt,value
2018-07-13T00:00:02.077Z,92.77
2018-07-13T00:01:02.258Z,92.96
2018-07-13T00:02:02.435Z,92.57
2018-07-13T00:03:02.609Z,93.05
2018-07-13T00:04:02.790Z,93.49
2018-07-13T00:05:02.982Z,92.77
2018-07-13T00:06:03.163Z,92.43
2018-07-13T00:07:03.337Z,93.01
2018-07-13T00:08:03.516Z,92.72
2018-07-13T00:09:03.692Z,93.10
2018-07-13T00:10:03.881Z,92.82
2018-07-13T00:11:04.058Z,93.20
2018-07-13T00:12:04.235Z,93.87
2018-07-13T00:13:04.412Z,93.10
2018-07-13T00:14:04.588Z,93.39
2018-07-13T00:15:04.771Z,93.39
2018-07-13T00:16:04.945Z,93.49
2018-07-13T00:17:05.137Z,93.77
2018-07-13T00:18:05.315Z,93.68
2018-07-13T00:19:05.487Z,93.49
2018-07-13T00:20:05.673Z,93.87
2018-07-13T00:21:05.851Z,94.07
2018-07-13T00:22:06.033Z,93.97
2018-07-13T00:23:06.217Z,93.87
2018-07-13T00:24:06.398Z,94.45
2018-07-13T00:25:06.582Z,94.64
2018-07-13T00:26:06.759Z,94.54
2018-07-13T00:27:06.946Z,94.45
2018-07-13T00:28:07.144Z,94.40
2018-07-13T00:29:07.313Z,94.45
2018-07-13T00:30:07.499Z,94.26
2018-07-13T00:31:07.673Z,94.74
2018-07-13T00:32:07.856Z,94.93
2018-07-13T00:33:08.058Z,94.74
2018-07-13T00:34:08.243Z,94.74
2018-07-13T00:35:08.423Z,94.74
2018-07-13T00:36:08.600Z,94.40
2018-07-13T00:37:08.777Z,94.45
2018-07-13T00:38:08.955Z,94.64
2018-07-13T00:39:09.129Z,94.40
2018-07-13T00:40:09.310Z,94.69
2018-07-13T00:41:09.498Z,94.16
2018-07-13T00:42:09.673Z,94.83
2018-07-13T00:43:09.850Z,94.74
2018-07-13T00:44:10.029Z,94.59
2018-07-13T00:45:10.211Z,94.12
2018-07-13T00:46:10.391Z,94.49
2018-07-13T00:47:10.573Z,94.69
2018-07-13T00:48:10.753Z,94.31
2018-07-13T00:49:10.927Z,94.40
2018-07-13T00:50:11.110Z,94.31
2018-07-13T00:51:11.287Z,94.69
2018-07-13T00:52:11.466Z,94.59
2018-07-13T00:53:11.644Z,95.36
2018-07-13T00:54:11.823Z,95.46
2018-07-13T00:55:12.012Z,95.65
2018-07-13T00:56:12.195Z,95.26
2018-07-13T00:57:12.380Z,94.98
2018-07-13T00:58:12.558Z,95.65
2018-07-13T00:59:12.735Z,94.49
2018-07-13T01:00:12.919Z,95.07
2018-07-13T01:01:13.095Z,95.26
2018-07-13T01:02:13.284Z,95.17
2018-07-13T01:03:13.464Z,95.36
2018-07-13T01:04:13.643Z,95.46
2018-07-13T01:05:13.819Z,95.36
2018-07-13T01:06:13.999Z,95.36
2018-07-13T01:07:14.185Z,95.46
2018-07-13T01:08:14.365Z,95.94
2018-07-13T01:09:14.537Z,95.84
2018-07-13T01:10:14.714Z,96.22
2018-07-13T01:11:14.899Z,96.03
2018-07-13T01:12:15.072Z,95.84
2018-07-13T01:13:15.256Z,96.32
2018-07-13T01:14:15.434Z,96.32
2018-07-13T01:15:15.615Z,95.55
2018-07-13T01:16:15.799Z,95.07
2018-07-13T01:17:15.974Z,94.79
2018-07-13T01:18:16.155Z,94.59
2018-07-13T01:19:16.334Z,94.40
2018-07-13T01:20:16.509Z,94.59
2018-07-13T01:21:16.688Z,94.21
2018-07-13T01:22:16.880Z,94.31
2018-07-13T01:23:17.067Z,94.98
2018-07-13T01:24:17.242Z,95.36
2018-07-13T01:25:17.417Z,95.55
2018-07-13T01:26:17.594Z,95.36
2018-07-13T01:27:17.778Z,94.98
2018-07-13T01:28:17.956Z,94.49
2018-07-13T01:29:18.140Z,94.59
2018-07-13T01:30:18.322Z,94.98
2018-07-13T01:31:18.500Z,94.79
2018-07-13T01:32:18.677Z,94.98
2018-07-13T01:33:18.852Z,94.49
2018-07-13T01:34:19.044Z,94.59
2018-07-13T01:35:19.225Z,94.98
2018-07-13T01:36:19.406Z,94.98
2018-07-13T01:37:19.583Z,94.59
2018-07-13T01:38:19.762Z,94.98
2018-07-13T01:39:19.950Z,94.79
2018-07-13T01:40:20.144Z,95.07
2018-07-13T01:41:20.315Z,94.98
2018-07-13T01:42:20.507Z,94.59
2018-07-13T01:43:20.688Z,94.40
2018-07-13T01:44:20.868Z,94.59
2018-07-13T01:45:21.042Z,95.17
2018-07-13T01:46:21.219Z,94.98
2018-07-13T01:47:21.398Z,94.59
2018-07-13T01:48:21.581Z,94.88
2018-07-13T01:49:21.766Z,95.36
2018-07-13T01:50:21.941Z,95.65
2018-07-13T01:51:22.134Z,95.26
2018-07-13T01:52:22.326Z,95.26
2018-07-13T01:53:22.512Z,95.55
2018-07-13T01:54:22.691Z,95.07
2018-07-13T01:55:22.869Z,95.07
2018-07-13T01:56:23.045Z,95.46
2018-07-13T01:57:23.223Z,95.75
2018-07-13T01:58:23.407Z,95.41
2018-07-13T01:59:23.584Z,95.31
2018-07-13T02:00:23.763Z,95.98
2018-07-13T02:01:23.936Z,96.18
2018-07-13T02:02:24.115Z,95.98
2018-07-13T02:03:24.296Z,95.98
2018-07-13T02:04:24.479Z,96.18
2018-07-13T02:05:24.652Z,96.08
2018-07-13T02:06:24.837Z,96.27
2018-07-13T02:07:25.018Z,96.42
2018-07-13T02:08:25.192Z,95.84
2018-07-13T02:09:25.379Z,96.08
2018-07-13T02:10:25.558Z,95.98
2018-07-13T02:11:25.743Z,96.18
2018-07-13T02:12:25.913Z,96.03
2018-07-13T02:13:26.086Z,95.98
2018-07-13T02:14:26.279Z,95.98
2018-07-13T02:15:26.456Z,95.36
2018-07-13T02:16:26.638Z,95.36
2018-07-13T02:17:26.815Z,96.03
2018-07-13T02:18:26.992Z,95.36
2018-07-13T02:19:27.175Z,95.07
2018-07-13T02:20:27.352Z,95.26
2018-07-13T02:21:27.527Z,96.18
2018-07-13T02:22:27.708Z,96.18
2018-07-13T02:23:27.887Z,95.46
2018-07-13T02:24:28.073Z,95.55
2018-07-13T02:25:28.243Z,95.98
2018-07-13T02:26:28.425Z,95.84
2018-07-13T02:27:28.612Z,96.22
2018-07-13T02:28:28.791Z,95.94
2018-07-13T02:29:28.977Z,95.03
2018-07-13T02:30:29.152Z,95.31
2018-07-13T02:31:29.333Z,95.31
2018-07-13T02:32:29.520Z,95.98
2018-07-13T02:33:29.694Z,95.60
2018-07-13T02:34:29.876Z,95.60
2018-07-13T02:35:30.058Z,96.18
2018-07-13T02:36:30.237Z,95.79
2018-07-13T02:37:30.436Z,95.98
2018-07-13T02:38:30.601Z,96.08
2018-07-13T02:39:30.788Z,95.89
2018-07-13T02:40:30.961Z,95.60
2018-07-13T02:41:31.163Z,96.56
2018-07-13T02:42:31.332Z,95.89
2018-07-13T02:43:31.517Z,96.37
2018-07-13T02:44:31.704Z,95.98
2018-07-13T02:45:31.881Z,96.56
2018-07-13T02:46:32.058Z,96.18
2018-07-13T02:47:32.232Z,97.04
2018-07-13T02:48:32.419Z,97.04
2018-07-13T02:49:32.592Z,96.47
2018-07-13T02:50:32.773Z,96.18
2018-07-13T02:51:32.955Z,96.47
2018-07-13T02:52:33.132Z,95.89
2018-07-13T02:53:33.307Z,95.89
2018-07-13T02:54:33.486Z,95.79
2018-07-13T02:55:33.665Z,96.47
2018-07-13T02:56:33.840Z,96.18
2018-07-13T02:57:34.020Z,96.37
2018-07-13T02:58:34.199Z,97.04
2018-07-13T02:59:34.383Z,96.85
2018-07-13T03:00:34.561Z,96.32
2018-07-13T03:01:34.740Z,97.09
2018-07-13T03:02:34.923Z,96.70
2018-07-13T03:03:35.104Z,97.47
2018-07-13T03:04:35.282Z,96.89
2018-07-13T03:05:35.459Z,96.80
2018-07-13T03:06:35.638Z,96.89
2018-07-13T03:07:35.827Z,97.47
2018-07-13T03:08:36.014Z,97.47
2018-07-13T03:09:36.205Z,96.80
2018-07-13T03:10:36.382Z,96.89
2018-07-13T03:11:36.571Z,97.28
2018-07-13T03:12:36.758Z,97.28
2018-07-13T03:13:36.933Z,98.14
2018-07-13T03:14:37.113Z,96.99
2018-07-13T03:15:37.291Z,97.09
2018-07-13T03:16:37.481Z,97.09
2018-07-13T03:17:37.658Z,97.28
2018-07-13T03:18:37.832Z,96.70
2018-07-13T03:19:38.011Z,97.09
2018-07-13T03:20:38.201Z,97.28
2018-07-13T03:21:38.392Z,97.18
2018-07-13T03:22:38.582Z,97.38
2018-07-13T03:23:38.769Z,97.18
2018-07-13T03:24:38.962Z,97.09
2018-07-13T03:25:39.141Z,97.28
2018-07-13T03:26:39.330Z,97.09
2018-07-13T03:27:39.519Z,96.70
2018-07-13T03:28:39.688Z,97.76
2018-07-13T03:29:39.869Z,97.85
2018-07-13T03:30:40.055Z,97.95
2018-07-13T03:31:40.232Z,97.85
2018-07-13T03:32:40.407Z,97.85
2018-07-13T03:33:40.585Z,97.66
2018-07-13T03:34:40.764Z,97.95
2018-07-13T03:35:40.941Z,97.85
2018-07-13T03:36:41.136Z,98.14
2018-07-13T03:37:41.315Z,97.76
2018-07-13T03:38:41.486Z,98.24
2018-07-13T03:39:41.665Z,98.05
2018-07-13T03:40:41.842Z,98.05
2018-07-13T03:41:42.033Z,98.05
2018-07-13T03:42:42.208Z,98.05
2018-07-13T03:43:42.397Z,97.85
2018-07-13T03:44:42.579Z,97.95
2018-07-13T03:45:42.780Z,97.85
2018-07-13T03:46:42.951Z,98.05
2018-07-13T03:47:43.131Z,98.05
2018-07-13T03:48:43.313Z,98.24
2018-07-13T03:49:43.500Z,97.66
2018-07-13T03:50:43.676Z,97.66
2018-07-13T03:51:43.856Z,97.66
2018-07-13T03:52:44.042Z,97.76
2018-07-13T03:53:44.219Z,98.05
2018-07-13T03:54:44.404Z,97.38
2018-07-13T03:55:44.579Z,96.99
2018-07-13T03:56:44.767Z,97.09
2018-07-13T03:57:44.948Z,96.89
2018-07-13T03:58:45.121Z,97.09
2018-07-13T03:59:45.304Z,97.18
2018-07-13T04:00:45.483Z,97.09
2018-07-13T04:01:45.662Z,97.28
2018-07-13T04:02:45.841Z,98.05
2018-07-13T04:03:46.037Z,97.38
2018-07-13T04:04:46.221Z,96.89
2018-07-13T04:05:46.395Z,97.38
2018-07-13T04:06:46.588Z,97.28
2018-07-13T04:07:46.770Z,96.99
2018-07-13T04:08:46.943Z,97.23
2018-07-13T04:09:47.132Z,96.47
2018-07-13T04:10:47.321Z,97.14
2018-07-13T04:11:47.503Z,96.66
2018-07-13T04:12:47.680Z,97.14
2018-07-13T04:13:47.864Z,96.94
2018-07-13T04:14:48.113Z,97.14
2018-07-13T04:15:48.220Z,98.00
2018-07-13T04:16:48.401Z,98.00
2018-07-13T04:17:48.579Z,97.09
2018-07-13T04:18:48.757Z,97.04
2018-07-13T04:19:51.136Z,97.18
2018-07-13T04:20:49.111Z,97.38
2018-07-13T04:21:49.305Z,97.47
2018-07-13T04:22:49.486Z,96.70
2018-07-13T04:23:49.676Z,96.89
2018-07-13T04:24:49.864Z,96.32
2018-07-13T04:25:50.034Z,96.80
2018-07-13T04:26:50.212Z,96.80
2018-07-13T04:27:50.398Z,96.99
2018-07-13T04:28:50.601Z,96.70
2018-07-13T04:29:50.782Z,96.80
2018-07-13T04:30:50.973Z,96.51
2018-07-13T04:31:51.146Z,96.13
2018-07-13T04:32:51.327Z,96.51
2018-07-13T04:33:51.665Z,96.32
2018-07-13T04:34:54.707Z,96.80
2018-07-13T04:35:54.637Z,96.51
2018-07-13T04:36:52.152Z,96.51
2018-07-13T04:37:52.989Z,96.32
2018-07-13T04:38:52.467Z,96.70
2018-07-13T04:39:52.657Z,96.99
2018-07-13T04:40:52.900Z,96.51
2018-07-13T04:41:53.017Z,96.18
2018-07-13T04:42:53.204Z,96.18
2018-07-13T04:43:53.411Z,95.70
2018-07-13T04:44:53.587Z,95.60
2018-07-13T04:45:53.813Z,96.08
2018-07-13T04:46:53.987Z,95.79
2018-07-13T04:47:54.191Z,96.18
2018-07-13T04:48:54.376Z,95.98
2018-07-13T04:49:54.569Z,95.60
2018-07-13T04:50:54.746Z,96.37
2018-07-13T04:51:54.928Z,96.08
2018-07-13T04:52:55.115Z,96.27
2018-07-13T04:53:55.283Z,95.98
2018-07-13T04:54:55.546Z,96.18
2018-07-13T04:55:55.559Z,96.18
2018-07-13T04:56:55.736Z,96.08
2018-07-13T04:57:55.914Z,95.21
2018-07-13T04:58:56.089Z,95.51
2018-07-13T04:59:56.264Z,95.03
2018-07-13T05:00:56.458Z,95.12
2018-07-13T05:01:56.730Z,94.93
2018-07-13T05:02:56.835Z,95.21
2018-07-13T05:03:57.025Z,95.21
2018-07-13T05:04:57.201Z,95.07
2018-07-13T05:05:57.398Z,94.69
2018-07-13T05:06:57.582Z,94.59
2018-07-13T05:07:59.170Z,94.49
2018-07-13T05:09:00.257Z,94.40
2018-07-13T05:09:58.083Z,94.31
2018-07-13T05:10:58.274Z,93.92
2018-07-13T05:11:58.468Z,93.44
2018-07-13T05:12:58.665Z,92.63
2018-07-13T05:13:58.893Z,93.77
2018-07-13T05:14:59.060Z,92.43
2018-07-13T05:15:59.249Z,92.63
2018-07-13T05:16:59.449Z,92.24
2018-07-13T05:17:59.626Z,92.53
2018-07-13T05:18:59.818Z,92.63
2018-07-13T05:19:59.989Z,92.72
2018-07-13T05:21:00.202Z,92.43
2018-07-13T05:22:00.374Z,92.82
2018-07-13T05:23:00.966Z,92.82
2018-07-13T05:24:01.201Z,92.63
2018-07-13T05:25:01.587Z,92.53
2018-07-13T05:26:01.434Z,92.63
2018-07-13T05:27:01.407Z,92.43
2018-07-13T05:28:01.509Z,92.63
2018-07-13T05:29:02.175Z,92.24
2018-07-13T05:30:02.078Z,92.24
2018-07-13T05:31:02.216Z,92.05
2018-07-13T05:32:02.372Z,91.86
2018-07-13T05:33:02.720Z,91.76
2018-07-13T05:34:02.564Z,91.86
2018-07-13T05:35:02.966Z,92.05
2018-07-13T05:36:02.979Z,92.10
2018-07-13T05:37:03.377Z,91.81
2018-07-13T05:38:03.380Z,92.00
2018-07-13T05:39:03.689Z,91.71
2018-07-13T05:40:03.739Z,91.33
2018-07-13T05:41:03.761Z,90.56
2018-07-13T05:42:03.950Z,90.66
2018-07-13T05:43:04.068Z,90.94
2018-07-13T05:44:04.424Z,91.23
2018-07-13T05:45:04.297Z,90.27
2018-07-13T05:46:04.511Z,90.03
2018-07-13T05:47:04.600Z,90.08
2018-07-13T05:48:04.941Z,89.74
2018-07-13T05:49:04.970Z,89.83
2018-07-13T05:50:05.138Z,89.54
2018-07-13T05:51:05.335Z,89.45
2018-07-13T05:52:05.057Z,89.93
2018-07-13T05:53:05.248Z,89.07
2018-07-13T05:54:05.432Z,88.97
2018-07-13T05:55:05.617Z,89.40
2018-07-13T05:56:05.808Z,88.15
2018-07-13T05:57:06.048Z,88.06
2018-07-13T05:58:06.107Z,88.06
2018-07-13T05:59:06.290Z,87.76
2018-07-13T06:00:06.480Z,86.99
2018-07-13T06:01:06.662Z,86.61
2018-07-13T06:02:06.852Z,85.98
2018-07-13T06:03:07.492Z,86.46
2018-07-13T06:04:07.160Z,85.78
2018-07-13T06:05:07.346Z,84.92
2018-07-13T06:06:07.520Z,85.31
2018-07-13T06:07:07.705Z,84.92
2018-07-13T06:08:07.888Z,85.06
2018-07-13T06:09:08.072Z,84.39
2018-07-13T06:10:08.260Z,84.58
2018-07-13T06:11:08.442Z,84.48
2018-07-13T06:12:08.622Z,84.29
2018-07-13T06:13:08.804Z,83.91
2018-07-13T06:14:08.993Z,84.29
2018-07-13T06:15:09.223Z,84.10
2018-07-13T06:16:09.358Z,84.39
2018-07-13T06:17:09.547Z,84.39
2018-07-13T06:18:09.736Z,83.91
2018-07-13T06:19:09.929Z,83.72
2018-07-13T06:20:10.119Z,83.62
2018-07-13T06:21:10.305Z,83.56
2018-07-13T06:22:10.489Z,82.60
2018-07-13T06:23:10.686Z,82.12
2018-07-13T06:24:10.893Z,81.73
2018-07-13T06:25:11.078Z,81.58
2018-07-13T06:26:11.263Z,80.91
2018-07-13T06:27:11.448Z,80.52
2018-07-13T06:28:11.633Z,79.89
2018-07-13T06:29:11.838Z,78.67
2018-07-13T06:30:12.033Z,77.81
2018-07-13T06:31:12.379Z,77.46
2018-07-13T06:32:12.342Z,75.76
2018-07-13T06:33:12.543Z,74.51
2018-07-13T06:34:12.745Z,73.28
2018-07-13T06:35:12.939Z,71.91
2018-07-13T06:36:13.288Z,70.10
2018-07-13T06:37:13.422Z,69.08
2018-07-13T06:38:13.491Z,68.15
2018-07-13T06:39:13.712Z,66.82
2018-07-13T06:40:13.819Z,65.69
2018-07-13T06:41:14.392Z,63.98
2018-07-13T06:42:14.150Z,63.36
2018-07-13T06:43:14.501Z,61.09
2018-07-13T06:44:14.609Z,59.38
2018-07-13T06:45:14.828Z,57.75
2018-07-13T06:46:15.046Z,56.25
2018-07-13T06:47:15.243Z,54.89
2018-07-13T06:48:17.183Z,54.82
2018-07-13T06:49:15.635Z,54.06
2018-07-13T06:50:15.850Z,53.58
2018-07-13T06:51:16.047Z,53.11
2018-07-13T06:52:16.260Z,51.39
2018-07-13T06:53:16.447Z,50.34
2018-07-13T06:54:16.640Z,49.10
2018-07-13T06:55:17.112Z,47.75
2018-07-13T06:56:17.029Z,46.89
2018-07-13T06:57:17.241Z,46.99
2018-07-13T06:58:17.440Z,47.27
2018-07-13T06:59:18.089Z,47.28
2018-07-13T07:00:17.953Z,47.09
2018-07-13T07:01:18.025Z,46.60
2018-07-13T07:02:18.231Z,46.26
2018-07-13T07:03:18.429Z,45.20
2018-07-13T07:04:18.975Z,45.20
2018-07-13T07:05:18.899Z,44.73
2018-07-13T07:06:18.962Z,44.38
2018-07-13T07:07:19.799Z,44.27
2018-07-13T07:08:20.143Z,44.37
2018-07-13T07:09:20.177Z,43.31
2018-07-13T07:10:20.547Z,42.15
2018-07-13T07:11:21.061Z,42.86
2018-07-13T07:12:20.187Z,41.98
2018-07-13T07:13:20.380Z,41.11
2018-07-13T07:14:20.570Z,40.13
2018-07-13T07:15:20.791Z,40.63
2018-07-13T07:16:22.200Z,40.72
2018-07-13T07:17:21.252Z,40.72
2018-07-13T07:18:21.332Z,40.13
2018-07-13T07:19:21.537Z,40.06
2018-07-13T07:20:21.740Z,40.08
2018-07-13T07:21:21.989Z,39.11
2018-07-13T07:22:22.053Z,38.15
2018-07-13T07:23:22.266Z,38.34
2018-07-13T07:24:22.530Z,38.36
2018-07-13T07:25:22.670Z,37.67
2018-07-13T07:26:22.871Z,37.20
2018-07-13T07:27:23.089Z,37.41
2018-07-13T07:28:23.299Z,36.92
2018-07-13T07:29:23.497Z,35.56
2018-07-13T07:30:24.038Z,34.75
2018-07-13T07:31:23.888Z,34.49
2018-07-13T07:32:24.406Z,33.64
2018-07-13T07:33:24.273Z,33.75
2018-07-13T07:34:24.796Z,33.16
2018-07-13T07:35:25.089Z,32.49
2018-07-13T07:36:25.188Z,32.12
2018-07-13T07:37:24.901Z,30.95
2018-07-13T07:38:25.116Z,29.96
2018-07-13T07:39:25.330Z,29.96
2018-07-13T07:40:25.539Z,30.05
2018-07-13T07:41:27.185Z,29.85
2018-07-13T07:42:27.077Z,30.26
2018-07-13T07:43:26.114Z,29.00
2018-07-13T07:44:26.370Z,29.20
2018-07-13T07:45:26.578Z,29.60
2018-07-13T07:46:26.803Z,29.71
2018-07-13T07:47:26.998Z,28.23
2018-07-13T07:48:27.213Z,27.44
2018-07-13T07:49:27.414Z,27.26
2018-07-13T07:50:27.616Z,27.26
2018-07-13T07:51:27.824Z,26.78
2018-07-13T07:52:28.009Z,26.28
2018-07-13T07:53:28.530Z,27.00
2018-07-13T07:54:28.681Z,26.90
2018-07-13T07:55:29.452Z,25.81
2018-07-13T07:56:30.483Z,25.91
2018-07-13T07:57:29.974Z,25.72
2018-07-13T07:58:30.386Z,25.82
2018-07-13T07:59:31.379Z,26.12
2018-07-13T08:00:29.628Z,25.73
2018-07-13T08:01:29.704Z,24.74
2018-07-13T08:02:31.240Z,24.35
2018-07-13T08:03:30.657Z,24.05
2018-07-13T08:04:30.293Z,24.53
2018-07-13T08:05:30.548Z,24.43
2018-07-13T08:06:32.266Z,24.74
2018-07-13T08:07:32.774Z,24.34
2018-07-13T08:08:33.233Z,24.44
2018-07-13T08:09:33.001Z,24.46
2018-07-13T08:10:32.672Z,24.16
2018-07-13T08:11:33.167Z,23.98
2018-07-13T08:12:32.461Z,23.28
2018-07-13T08:13:33.016Z,23.38
2018-07-13T08:14:33.750Z,23.78
2018-07-13T08:15:33.118Z,23.78
2018-07-13T08:16:34.436Z,22.80
2018-07-13T08:17:33.389Z,22.01
2018-07-13T08:18:33.990Z,21.91
2018-07-13T08:19:34.191Z,22.18
2018-07-13T08:20:34.142Z,22.19
2018-07-13T08:21:33.484Z,22.17
2018-07-13T08:22:34.536Z,22.83
2018-07-13T08:23:33.755Z,23.05
2018-07-13T08:24:34.702Z,23.14
2018-07-13T08:25:34.371Z,23.14
2018-07-13T08:26:35.180Z,23.83
2018-07-13T08:27:35.394Z,23.66
2018-07-13T08:28:35.695Z,21.77
2018-07-13T08:29:35.248Z,22.18
2018-07-13T08:30:35.823Z,21.99
2018-07-13T08:31:36.594Z,21.89
2018-07-13T08:32:36.327Z,21.89
2018-07-13T08:33:36.383Z,22.10
2018-07-13T08:34:35.806Z,22.40
2018-07-13T08:35:36.009Z,22.12
2018-07-13T08:36:37.374Z,21.44
2018-07-13T08:37:37.980Z,20.35
2018-07-13T08:38:36.542Z,20.64
2018-07-13T08:39:36.749Z,21.62
2018-07-13T08:40:37.123Z,20.43
2018-07-13T08:41:37.207Z,20.43
2018-07-13T08:42:37.409Z,20.72
2018-07-13T08:43:37.604Z,21.68
2018-07-13T08:44:38.171Z,21.97
2018-07-13T08:45:38.447Z,21.85
2018-07-13T08:46:38.127Z,21.75
2018-07-13T08:47:38.324Z,21.65
2018-07-13T08:48:38.518Z,22.14
2018-07-13T08:49:38.726Z,21.66
2018-07-13T08:50:38.920Z,22.08
2018-07-13T08:51:39.129Z,21.66
2018-07-13T08:52:39.356Z,21.84
2018-07-13T08:53:39.791Z,22.55
2018-07-13T08:54:42.885Z,21.88
2018-07-13T08:55:41.088Z,21.37
2018-07-13T08:56:40.341Z,20.67
2018-07-13T08:57:40.556Z,21.17
2018-07-13T08:58:40.713Z,19.79
2018-07-13T08:59:40.844Z,19.20
2018-07-13T09:00:41.011Z,18.79
2018-07-13T09:01:41.956Z,18.37
2018-07-13T09:02:41.486Z,19.62
2018-07-13T09:03:41.834Z,19.62
2018-07-13T09:04:41.980Z,19.54
2018-07-13T09:05:41.993Z,19.05
2018-07-13T09:06:42.237Z,18.46
2018-07-13T09:07:42.177Z,17.77
2018-07-13T09:08:42.955Z,18.47
2018-07-13T09:09:42.778Z,18.76
2018-07-13T09:10:43.059Z,18.26
2018-07-13T09:11:43.078Z,18.47
2018-07-13T09:12:43.307Z,18.08
2018-07-13T09:13:43.619Z,18.37
2018-07-13T09:14:43.921Z,18.66
2018-07-13T09:15:44.795Z,19.37
2018-07-13T09:16:44.112Z,19.17
2018-07-13T09:17:44.975Z,18.78
2018-07-13T09:18:44.340Z,19.06
2018-07-13T09:19:44.582Z,20.34
2018-07-13T09:20:47.129Z,20.13
2018-07-13T09:21:44.576Z,20.25
2018-07-13T09:22:44.772Z,18.56
2018-07-13T09:23:44.999Z,18.67
2018-07-13T09:24:45.189Z,19.67
2018-07-13T09:25:45.388Z,18.59
2018-07-13T09:26:45.574Z,18.01
2018-07-13T09:27:45.765Z,16.93
2018-07-13T09:28:45.967Z,16.34
2018-07-13T09:29:46.166Z,15.65
2018-07-13T09:30:46.396Z,16.45
2018-07-13T09:31:46.792Z,15.97
2018-07-13T09:32:46.762Z,15.17
2018-07-13T09:33:46.972Z,15.17
2018-07-13T09:34:47.209Z,15.17
2018-07-13T09:35:47.486Z,15.14
2018-07-13T09:36:47.625Z,15.53
2018-07-13T09:37:47.715Z,17.00
2018-07-13T09:38:47.934Z,17.86
2018-07-13T09:39:48.414Z,17.77
2018-07-13T09:40:48.376Z,16.71
2018-07-13T09:41:48.614Z,17.21
2018-07-13T09:42:48.832Z,17.50
2018-07-13T09:43:53.415Z,17.51
2018-07-13T09:44:49.591Z,17.19
2018-07-13T09:45:50.185Z,16.81
2018-07-13T09:46:49.894Z,17.30
2018-07-13T09:47:49.949Z,18.37
2018-07-13T09:48:50.085Z,18.84
2018-07-13T09:49:50.287Z,18.85
2018-07-13T09:50:50.488Z,19.35
2018-07-13T09:51:50.586Z,19.56
2018-07-13T09:52:50.921Z,19.06
2018-07-13T09:53:50.960Z,17.28
2018-07-13T09:54:51.166Z,18.18
2018-07-13T09:55:51.436Z,17.60
2018-07-13T09:56:51.588Z,17.70
2018-07-13T09:57:51.874Z,18.30
2018-07-13T09:58:51.904Z,16.91
2018-07-13T09:59:52.098Z,17.21
2018-07-13T10:00:52.201Z,17.21
2018-07-13T10:01:52.374Z,18.09
2018-07-13T10:02:52.611Z,18.07
2018-07-13T10:03:52.801Z,17.48
2018-07-13T10:04:53.014Z,18.33
2018-07-13T10:05:53.201Z,19.42
2018-07-13T10:06:53.392Z,19.54
2018-07-13T10:07:53.596Z,19.15
2018-07-13T10:08:53.790Z,18.46
2018-07-13T10:09:53.997Z,18.95
2018-07-13T10:10:54.193Z,19.62
2018-07-13T10:11:54.402Z,20.18
2018-07-13T10:12:54.592Z,21.46
2018-07-13T10:13:54.790Z,21.80
2018-07-13T10:14:54.975Z,22.09
2018-07-13T10:15:55.170Z,21.89
2018-07-13T10:16:55.369Z,21.39
2018-07-13T10:17:55.651Z,21.86
2018-07-13T10:18:55.729Z,21.95
2018-07-13T10:19:55.839Z,23.53
2018-07-13T10:20:56.042Z,24.37
2018-07-13T10:21:56.227Z,25.63
2018-07-13T10:22:56.416Z,25.54
2018-07-13T10:23:56.633Z,26.61
2018-07-13T10:24:56.826Z,25.63
2018-07-13T10:25:57.033Z,25.63
2018-07-13T10:26:57.222Z,25.15
2018-07-13T10:27:57.421Z,27.00
2018-07-13T10:28:57.618Z,27.07
2018-07-13T10:29:57.815Z,27.35
2018-07-13T10:30:57.994Z,26.55
2018-07-13T10:31:58.191Z,28.30
2018-07-13T10:32:58.398Z,28.58
2018-07-13T10:33:58.591Z,28.88
2018-07-13T10:34:58.792Z,29.84
2018-07-13T10:35:58.979Z,29.75
2018-07-13T10:36:59.175Z,29.38
2018-07-13T10:37:59.365Z,28.79
2018-07-13T10:38:59.589Z,27.42
2018-07-13T10:39:59.810Z,27.40
2018-07-13T10:40:59.952Z,27.12
2018-07-13T10:42:00.156Z,27.00
2018-07-13T10:43:00.393Z,28.28
2018-07-13T10:44:00.522Z,29.17
2018-07-13T10:45:00.592Z,27.81
2018-07-13T10:46:00.781Z,26.44
2018-07-13T10:47:01.102Z,26.43
2018-07-13T10:48:01.429Z,27.70
2018-07-13T10:49:01.483Z,27.59
2018-07-13T10:50:01.495Z,29.06
2018-07-13T10:51:01.737Z,29.66
2018-07-13T10:52:01.878Z,28.28
2018-07-13T10:53:02.065Z,28.47
2018-07-13T10:54:02.256Z,30.52
2018-07-13T10:55:02.452Z,30.05
2018-07-13T10:56:02.643Z,29.74
2018-07-13T10:57:02.843Z,29.95
2018-07-13T10:58:03.026Z,30.05
2018-07-13T10:59:03.221Z,29.06
2018-07-13T11:00:03.418Z,29.06
2018-07-13T11:01:03.609Z,28.28
2018-07-13T11:02:03.800Z,28.68
2018-07-13T11:03:04.033Z,28.88
2018-07-13T11:04:04.100Z,28.96
2018-07-13T11:05:04.515Z,27.78
2018-07-13T11:06:04.438Z,28.08
2018-07-13T11:07:04.676Z,27.59
2018-07-13T11:08:04.973Z,26.81
2018-07-13T11:09:05.023Z,27.88
2018-07-13T11:10:05.211Z,27.20
2018-07-13T11:11:05.492Z,27.29
2018-07-13T11:12:05.617Z,28.16
2018-07-13T11:13:05.689Z,28.26
2018-07-13T11:14:05.916Z,28.54
2018-07-13T11:15:06.425Z,29.24
2018-07-13T11:16:06.320Z,29.93
2018-07-13T11:17:06.512Z,28.44
2018-07-13T11:18:07.032Z,29.34
2018-07-13T11:19:09.061Z,28.45
2018-07-13T11:20:07.255Z,28.26
2018-07-13T11:21:07.200Z,29.14
2018-07-13T11:22:07.947Z,28.64
2018-07-13T11:23:07.614Z,28.26
2018-07-13T11:24:07.807Z,28.55
2018-07-13T11:25:07.994Z,29.24
2018-07-13T11:26:08.193Z,29.52
2018-07-13T11:27:08.410Z,29.81
2018-07-13T11:28:08.621Z,30.69
2018-07-13T11:29:08.811Z,30.38
2018-07-13T11:30:09.001Z,30.29
2018-07-13T11:31:09.192Z,30.97
2018-07-13T11:32:09.415Z,31.16
2018-07-13T11:33:09.602Z,31.18
2018-07-13T11:34:09.818Z,30.79
2018-07-13T11:35:10.052Z,30.59
2018-07-13T11:36:10.276Z,30.61
2018-07-13T11:37:10.680Z,30.80
2018-07-13T11:38:10.683Z,30.61
2018-07-13T11:39:10.854Z,30.12
2018-07-13T11:40:11.047Z,30.02
2018-07-13T11:41:11.263Z,29.55
2018-07-13T11:42:11.444Z,29.93
2018-07-13T11:43:11.667Z,30.32
2018-07-13T11:44:11.842Z,30.72
2018-07-13T11:45:12.014Z,29.66
2018-07-13T11:46:12.203Z,30.05
2018-07-13T11:47:12.399Z,29.27
2018-07-13T11:48:12.587Z,28.99
2018-07-13T11:49:12.785Z,29.38
2018-07-13T11:50:12.972Z,29.27
2018-07-13T11:51:13.158Z,29.38
2018-07-13T11:52:13.459Z,29.36
2018-07-13T11:53:13.572Z,29.75
2018-07-13T11:54:13.765Z,29.07
2018-07-13T11:55:13.950Z,29.27
2018-07-13T11:56:14.142Z,28.57
2018-07-13T11:57:14.358Z,28.65
2018-07-13T11:58:14.585Z,29.53
2018-07-13T11:59:14.762Z,31.16
2018-07-13T12:00:14.951Z,31.07
2018-07-13T12:01:15.148Z,31.35
2018-07-13T12:02:15.335Z,30.96
2018-07-13T12:03:15.557Z,31.84
2018-07-13T12:04:15.750Z,31.25
2018-07-13T12:05:15.944Z,31.05
2018-07-13T12:06:16.126Z,30.93
2018-07-13T12:07:16.325Z,31.60
2018-07-13T12:08:16.528Z,30.83
2018-07-13T12:09:16.722Z,31.70
2018-07-13T12:10:16.913Z,33.46
2018-07-13T12:11:17.108Z,32.70
2018-07-13T12:12:17.296Z,31.82
2018-07-13T12:13:17.489Z,32.13
2018-07-13T12:14:17.739Z,31.74
2018-07-13T12:15:17.877Z,31.64
2018-07-13T12:16:18.055Z,31.84
2018-07-13T12:17:18.272Z,31.84
2018-07-13T12:18:18.428Z,30.97
2018-07-13T12:19:18.622Z,31.85
2018-07-13T12:20:18.813Z,31.67
2018-07-13T12:21:19.000Z,30.88
2018-07-13T12:22:19.185Z,30.49
2018-07-13T12:23:19.462Z,30.59
2018-07-13T12:24:19.597Z,30.29
2018-07-13T12:25:19.812Z,29.61
2018-07-13T12:26:19.996Z,30.40
2018-07-13T12:27:20.197Z,31.18
2018-07-13T12:28:20.410Z,30.20
2018-07-13T12:29:20.597Z,29.71
2018-07-13T12:30:20.978Z,30.40
2018-07-13T12:31:20.924Z,30.58
2018-07-13T12:32:21.202Z,30.77
2018-07-13T12:33:21.327Z,31.16
2018-07-13T12:34:21.545Z,30.69
2018-07-13T12:35:21.729Z,30.80
2018-07-13T12:36:21.933Z,30.48
2018-07-13T12:37:22.114Z,30.58
2018-07-13T12:38:22.368Z,30.48
2018-07-13T12:39:22.444Z,30.68
2018-07-13T12:40:22.650Z,30.48
2018-07-13T12:41:22.845Z,30.48
2018-07-13T12:42:23.019Z,30.10
2018-07-13T12:43:23.236Z,30.79
2018-07-13T12:44:23.442Z,30.40
2018-07-13T12:45:23.717Z,30.48
2018-07-13T12:46:23.831Z,30.09
2018-07-13T12:47:24.299Z,30.66
2018-07-13T12:48:24.484Z,31.07
2018-07-13T12:49:24.376Z,30.27
2018-07-13T12:50:24.621Z,30.18
2018-07-13T12:51:24.909Z,31.07
2018-07-13T12:52:25.333Z,30.19
2018-07-13T12:53:25.490Z,29.80
2018-07-13T12:54:25.321Z,30.09